Terminal Aerodrome Forecast
Issued by NWS

Home | Current Version | Previous Version | Text Only | Print | Product List | Glossary On
Versions: 1 2 3 4 5 6 7 8 9 10 11 12 13 14 15 16 17
000
FTUS45 KLKN 291724
TAFWMC
TAF
KWMC 291724Z 2918/3018 27006KT P6SM SCT060 BKN140
     FM291900 25010KT P6SM VCSH SCT040 BKN060
     FM292000 28010G20KT P6SM -SHRA VCTS SCT040 BKN060CB
     FM300200 33010G20KT 6SM -SHRA BR SCT020 BKN030
     FM300800 34010G20KT 5SM -SHRA SCT010 BKN020
     FM301400 36018G28KT P6SM VCSH SCT020 BKN035=

USA.gov is the U.S. government's official web portal to all federal, state and local government web resources and services.